KP28

Medicine Lodge Airport

Medicine Lodge, Kansas, USA
METAR KP28 260356Z AUTO 12007KT 24/19 A2986 RMK AO1 SLP098 T02390189
Observed Flight Rules
May-26 @ 03:56 UTC (16 minutes ago)
Wind
120° at 7 knots
Temperatures Readings
Current 24°C / 75°F
Dewpoint 19°C / 66°F
Humidity 74%
Altimeter 29.86" Hg
Pressure 1009.8 hPa
Elevation 469
METAR KP28 260356Z AUTO 12007KT 24/19 A2986 RMK AO1 SLP098 T02390189
Observed Flight Rules
May-26 @ 03:56 UTC
(16 minutes ago)
Wind
120° at 7 knots
Temperature Dewpoint
24°C / 75°F 19°C / 66°F
Humidity Altimeter Pressure
74% 29.86" Hg 1009.8 hPa